sensor_id;sensor_type;location;lat;lon;timestamp;pressure;altitude;pressure_sealevel;temperature;humidity
19843;BME280;10082;51.038;6.992;2023-03-22T00:01:56;83105.72;;;-144.33;100.00
19843;BME280;10082;51.038;6.992;2023-03-22T00:04:24;82797.94;;;-144.33;100.00
19843;BME280;10082;51.038;6.992;2023-03-22T00:06:51;82588.13;;;-144.33;100.00
19843;BME280;10082;51.038;6.992;2023-03-22T00:09:19;82526.16;;;-144.33;100.00
19843;BME280;10082;51.038;6.992;2023-03-22T00:11:46;81585.09;;;-144.33;100.00
19843;BME280;10082;51.038;6.992;2023-03-22T00:14:15;80999.75;;;-144.33;100.00
19843;BME280;10082;51.038;6.992;2023-03-22T00:16:43;80412.53;;;-144.33;100.00
19843;BME280;10082;51.038;6.992;2023-03-22T00:19:14;79575.78;;;-144.33;100.00
19843;BME280;10082;51.038;6.992;2023-03-22T00:21:41;79318.19;;;-144.33;100.00
19843;BME280;10082;51.038;6.992;2023-03-22T00:24:09;79086.56;;;-144.33;100.00
19843;BME280;10082;51.038;6.992;2023-03-22T00:26:37;78391.81;;;-144.33;100.00
19843;BME280;10082;51.038;6.992;2023-03-22T00:29:04;78150.28;;;-144.33;100.00
19843;BME280;10082;51.038;6.992;2023-03-22T00:31:33;77884.81;;;-144.33;100.00
19843;BME280;10082;51.038;6.992;2023-03-22T00:34:00;77409.78;;;-144.33;100.00
19843;BME280;10082;51.038;6.992;2023-03-22T00:36:29;77649.28;;;-144.33;100.00
19843;BME280;10082;51.038;6.992;2023-03-22T00:38:57;77868.84;;;-144.33;100.00
19843;BME280;10082;51.038;6.992;2023-03-22T00:41:24;77617.34;;;-144.33;100.00
19843;BME280;10082;51.038;6.992;2023-03-22T00:43:51;77393.81;;;-144.33;100.00
19843;BME280;10082;51.038;6.992;2023-03-22T00:46:20;77212.22;;;-144.33;100.00
19843;BME280;10082;51.038;6.992;2023-03-22T00:48:48;77002.69;;;-144.33;100.00
19843;BME280;10082;51.038;6.992;2023-03-22T00:51:16;77403.81;;;-144.33;100.00
19843;BME280;10082;51.038;6.992;2023-03-22T00:56:44;76352.19;;;-144.33;100.00
19843;BME280;10082;51.038;6.992;2023-03-22T00:59:12;76561.69;;;-144.33;100.00
19843;BME280;10082;51.038;6.992;2023-03-22T01:01:42;76795.16;;;-144.33;100.00
19843;BME280;10082;51.038;6.992;2023-03-22T01:04:09;76176.63;;;-144.33;100.00
19843;BME280;10082;51.038;6.992;2023-03-22T01:06:40;74879.97;;;-144.33;100.00
19843;BME280;10082;51.038;6.992;2023-03-22T01:09:07;75785.59;;;-144.33;100.00
19843;BME280;10082;51.038;6.992;2023-03-22T01:11:40;75669.88;;;-144.33;100.00
19843;BME280;10082;51.038;6.992;2023-03-22T01:14:09;75823.50;;;-144.33;100.00
19843;BME280;10082;51.038;6.992;2023-03-22T01:16:38;75769.63;;;-144.33;100.00
19843;BME280;10082;51.038;6.992;2023-03-22T01:19:05;75865.38;;;-144.33;100.00
19843;BME280;10082;51.038;6.992;2023-03-22T01:21:32;75460.41;;;-144.33;100.00
19843;BME280;10082;51.038;6.992;2023-03-22T01:24:00;75452.44;;;-144.33;100.00
19843;BME280;10082;51.038;6.992;2023-03-22T01:26:27;76146.69;;;-144.33;100.00
19843;BME280;10082;51.038;6.992;2023-03-22T01:28:54;76422.03;;;-144.33;100.00
19843;BME280;10082;51.038;6.992;2023-03-22T01:31:23;77236.16;;;-144.33;100.00
19843;BME280;10082;51.038;6.992;2023-03-22T01:33:50;77693.19;;;-144.33;100.00
19843;BME280;10082;51.038;6.992;2023-03-22T01:36:20;77641.31;;;-144.33;100.00
19843;BME280;10082;51.038;6.992;2023-03-22T01:38:48;77308.00;;;-144.33;100.00
19843;BME280;10082;51.038;6.992;2023-03-22T01:41:17;77086.50;;;-144.33;100.00
19843;BME280;10082;51.038;6.992;2023-03-22T01:43:45;77272.09;;;-144.33;100.00
19843;BME280;10082;51.038;6.992;2023-03-22T01:46:34;77419.78;;;-144.33;100.00
19843;BME280;10082;51.038;6.992;2023-03-22T01:49:03;77557.47;;;-144.33;100.00
19843;BME280;10082;51.038;6.992;2023-03-22T01:51:32;77719.16;;;-144.33;100.00
19843;BME280;10082;51.038;6.992;2023-03-22T01:54:17;77349.91;;;-144.33;100.00
19843;BME280;10082;51.038;6.992;2023-03-22T01:56:46;76835.06;;;-144.33;100.00
19843;BME280;10082;51.038;6.992;2023-03-22T01:59:23;76563.69;;;-144.33;100.00
19843;BME280;10082;51.038;6.992;2023-03-22T02:02:15;76194.56;;;-144.33;100.00
19843;BME280;10082;51.038;6.992;2023-03-22T02:04:48;76316.28;;;-144.33;100.00
19843;BME280;10082;51.038;6.992;2023-03-22T02:07:22;75889.31;;;-144.33;100.00
19843;BME280;10082;51.038;6.992;2023-03-22T02:09:54;74975.72;;;-144.33;100.00
19843;BME280;10082;51.038;6.992;2023-03-22T02:12:30;74150.06;;;-144.33;100.00
19843;BME280;10082;51.038;6.992;2023-03-22T02:15:10;73432.25;;;-144.33;100.00
19843;BME280;10082;51.038;6.992;2023-03-22T02:18:12;73673.50;;;-144.33;100.00
19843;BME280;10082;51.038;6.992;2023-03-22T02:21:19;72840.13;;;-144.33;100.00
19843;BME280;10082;51.038;6.992;2023-03-22T02:24:19;72764.38;;;-144.33;100.00
19843;BME280;10082;51.038;6.992;2023-03-22T02:27:11;72142.47;;;-144.33;100.00
19843;BME280;10082;51.038;6.992;2023-03-22T02:29:47;71783.75;;;-144.33;100.00
19843;BME280;10082;51.038;6.992;2023-03-22T02:32:37;71781.75;;;-144.33;100.00
19843;BME280;10082;51.038;6.992;2023-03-22T02:35:38;71638.25;;;-144.33;100.00
19843;BME280;10082;51.038;6.992;2023-03-22T02:41:17;71562.53;;;-144.33;100.00
19843;BME280;10082;51.038;6.992;2023-03-22T02:43:57;71548.56;;;-144.33;100.00
19843;BME280;10082;51.038;6.992;2023-03-22T02:46:30;71576.47;;;-144.33;100.00
19843;BME280;10082;51.038;6.992;2023-03-22T02:49:04;71903.31;;;-144.33;100.00
19843;BME280;10082;51.038;6.992;2023-03-22T02:51:39;72553.09;;;-144.33;100.00
19843;BME280;10082;51.038;6.992;2023-03-22T02:54:12;72174.38;;;-144.33;100.00
19843;BME280;10082;51.038;6.992;2023-03-22T02:56:47;72698.59;;;-144.33;100.00
19843;BME280;10082;51.038;6.992;2023-03-22T02:59:18;73153.13;;;-144.33;100.00
19843;BME280;10082;51.038;6.992;2023-03-22T03:01:50;72710.56;;;-144.33;100.00
19843;BME280;10082;51.038;6.992;2023-03-22T03:04:21;73276.72;;;-144.33;100.00
19843;BME280;10082;51.038;6.992;2023-03-22T03:06:52;73440.22;;;-144.33;100.00
19843;BME280;10082;51.038;6.992;2023-03-22T03:09:22;73773.19;;;-144.33;100.00
19843;BME280;10082;51.038;6.992;2023-03-22T03:11:52;74122.16;;;-144.33;100.00
19843;BME280;10082;51.038;6.992;2023-03-22T03:14:22;74939.81;;;-144.33;100.00
19843;BME280;10082;51.038;6.992;2023-03-22T03:17:03;75340.75;;;-144.33;100.00
19843;BME280;10082;51.038;6.992;2023-03-22T03:19:37;75661.91;;;-144.33;100.00
19843;BME280;10082;51.038;6.992;2023-03-22T03:22:17;76184.59;;;-144.33;100.00
19843;BME280;10082;51.038;6.992;2023-03-22T03:24:56;76575.66;;;-144.33;100.00
19843;BME280;10082;51.038;6.992;2023-03-22T03:27:33;78100.38;;;-144.33;100.00
19843;BME280;10082;51.038;6.992;2023-03-22T03:30:05;77515.56;;;-144.33;100.00
19843;BME280;10082;51.038;6.992;2023-03-22T03:32:37;77940.69;;;-144.33;100.00
19843;BME280;10082;51.038;6.992;2023-03-22T03:35:12;78282.03;;;-144.33;100.00
19843;BME280;10082;51.038;6.992;2023-03-22T03:37:50;79192.41;;;-144.33;100.00
19843;BME280;10082;51.038;6.992;2023-03-22T03:40:21;79609.72;;;-144.33;100.00
19843;BME280;10082;51.038;6.992;2023-03-22T03:42:52;80051.03;;;-144.33;100.00
19843;BME280;10082;51.038;6.992;2023-03-22T03:45:23;80236.78;;;-144.33;100.00
19843;BME280;10082;51.038;6.992;2023-03-22T03:47:52;80861.94;;;-144.33;100.00
19843;BME280;10082;51.038;6.992;2023-03-22T03:50:22;81257.44;;;-144.33;100.00
19843;BME280;10082;51.038;6.992;2023-03-22T03:52:51;82230.44;;;-144.33;100.00
19843;BME280;10082;51.038;6.992;2023-03-22T03:55:20;83071.75;;;-144.33;100.00
19843;BME280;10082;51.038;6.992;2023-03-22T03:57:48;83953.22;;;-144.33;100.00
19843;BME280;10082;51.038;6.992;2023-03-22T04:00:17;84385.00;;;-144.33;100.00
19843;BME280;10082;51.038;6.992;2023-03-22T04:03:08;84878.84;;;-144.33;100.00
19843;BME280;10082;51.038;6.992;2023-03-22T04:05:59;85466.75;;;-144.33;100.00
19843;BME280;10082;51.038;6.992;2023-03-22T04:08:28;85796.72;;;-144.33;100.00
19843;BME280;10082;51.038;6.992;2023-03-22T04:10:56;85354.75;;;-144.33;100.00
19843;BME280;10082;51.038;6.992;2023-03-22T04:13:23;85720.72;;;-144.33;100.00
19843;BME280;10082;51.038;6.992;2023-03-22T04:15:54;85436.75;;;-144.33;100.00
19843;BME280;10082;51.038;6.992;2023-03-22T04:18:22;85654.72;;;-144.33;100.00
19843;BME280;10082;51.038;6.992;2023-03-22T04:20:52;86348.72;;;-144.33;100.00
19843;BME280;10082;51.038;6.992;2023-03-22T04:23:22;86742.78;;;-144.33;100.00
19843;BME280;10082;51.038;6.992;2023-03-22T04:25:50;87238.91;;;-144.33;100.00
19843;BME280;10082;51.038;6.992;2023-03-22T04:28:29;87448.97;;;-144.33;100.00
19843;BME280;10082;51.038;6.992;2023-03-22T04:31:00;87955.22;;;-144.33;100.00
19843;BME280;10082;51.038;6.992;2023-03-22T04:33:51;87973.22;;;-144.33;100.00
19843;BME280;10082;51.038;6.992;2023-03-22T04:36:48;87591.03;;;-144.33;100.00
19843;BME280;10082;51.038;6.992;2023-03-22T04:39:30;87400.97;;;-144.33;100.00
19843;BME280;10082;51.038;6.992;2023-03-22T04:42:17;86816.81;;;-144.33;100.00
19843;BME280;10082;51.038;6.992;2023-03-22T04:44:47;86710.78;;;-144.33;100.00
19843;BME280;10082;51.038;6.992;2023-03-22T04:47:16;86268.72;;;-144.33;100.00
19843;BME280;10082;51.038;6.992;2023-03-22T04:49:44;86100.72;;;-144.33;100.00
19843;BME280;10082;51.038;6.992;2023-03-22T04:52:11;85832.72;;;-144.33;100.00
19843;BME280;10082;51.038;6.992;2023-03-22T04:54:45;85636.72;;;-144.33;100.00
19843;BME280;10082;51.038;6.992;2023-03-22T04:57:12;84113.13;;;-144.33;100.00
19843;BME280;10082;51.038;6.992;2023-03-22T04:59:44;86084.72;;;-144.33;100.00
19843;BME280;10082;51.038;6.992;2023-03-22T05:02:12;86602.75;;;-144.33;100.00
19843;BME280;10082;51.038;6.992;2023-03-22T05:04:43;86572.75;;;-144.33;100.00
19843;BME280;10082;51.038;6.992;2023-03-22T05:07:32;87148.88;;;-144.33;100.00
19843;BME280;10082;51.038;6.992;2023-03-22T05:10:02;87252.91;;;-144.33;100.00
19843;BME280;10082;51.038;6.992;2023-03-22T05:12:30;87581.03;;;-144.33;100.00
19843;BME280;10082;51.038;6.992;2023-03-22T05:15:17;87589.03;;;-144.33;100.00
19843;BME280;10082;51.038;6.992;2023-03-22T05:17:47;87320.94;;;-144.33;100.00
19843;BME280;10082;51.038;6.992;2023-03-22T05:20:16;87188.91;;;-144.33;100.00
19843;BME280;10082;51.038;6.992;2023-03-22T05:22:49;87160.88;;;-144.33;100.00
19843;BME280;10082;51.038;6.992;2023-03-22T05:25:23;87198.91;;;-144.33;100.00
19843;BME280;10082;51.038;6.992;2023-03-22T05:27:50;86578.75;;;-144.33;100.00
19843;BME280;10082;51.038;6.992;2023-03-22T05:30:41;86820.81;;;-144.33;100.00
19843;BME280;10082;51.038;6.992;2023-03-22T05:33:25;85988.72;;;-144.33;100.00
19843;BME280;10082;51.038;6.992;2023-03-22T05:35:57;85908.72;;;-144.33;100.00
19843;BME280;10082;51.038;6.992;2023-03-22T05:38:27;85452.75;;;-144.33;100.00
19843;BME280;10082;51.038;6.992;2023-03-22T05:40:57;85964.72;;;-144.33;100.00
19843;BME280;10082;51.038;6.992;2023-03-22T05:43:25;85450.75;;;-144.33;100.00
19843;BME280;10082;51.038;6.992;2023-03-22T05:45:52;84802.88;;;-144.33;100.00
19843;BME280;10082;51.038;6.992;2023-03-22T05:48:32;84181.09;;;-144.33;100.00
19843;BME280;10082;51.038;6.992;2023-03-22T05:51:01;83159.69;;;-144.33;100.00
19843;BME280;10082;51.038;6.992;2023-03-22T05:53:32;82024.63;;;-144.33;100.00
19843;BME280;10082;51.038;6.992;2023-03-22T05:56:09;80967.81;;;-144.33;100.00
19843;BME280;10082;51.038;6.992;2023-03-22T05:58:39;79955.19;;;-144.33;100.00
19843;BME280;10082;51.038;6.992;2023-03-22T06:01:11;78591.44;;;-144.33;100.00
19843;BME280;10082;51.038;6.992;2023-03-22T06:03:46;77615.38;;;-144.33;100.00
19843;BME280;10082;51.038;6.992;2023-03-22T06:06:29;76192.56;;;-144.33;100.00
19843;BME280;10082;51.038;6.992;2023-03-22T06:09:10;74987.69;;;-144.33;100.00
19843;BME280;10082;51.038;6.992;2023-03-22T06:11:39;74225.84;;;-144.33;100.00
19843;BME280;10082;51.038;6.992;2023-03-22T06:14:06;72915.88;;;-144.33;100.00
19843;BME280;10082;51.038;6.992;2023-03-22T06:17:07;71725.94;;;-144.33;100.00
19843;BME280;10082;51.038;6.992;2023-03-22T06:19:37;71072.31;;;-144.33;100.00
19843;BME280;10082;51.038;6.992;2023-03-22T06:22:07;70610.06;;;-144.33;100.00
19843;BME280;10082;51.038;6.992;2023-03-22T06:24:36;70472.59;;;-144.33;100.00
19843;BME280;10082;51.038;6.992;2023-03-22T06:27:05;70229.53;;;-144.33;100.00
19843;BME280;10082;51.038;6.992;2023-03-22T06:29:34;69574.16;;;-144.33;100.00
19843;BME280;10082;51.038;6.992;2023-03-22T06:32:04;68827.31;;;-144.33;100.00
19843;BME280;10082;51.038;6.992;2023-03-22T06:34:31;68425.03;;;-144.33;100.00
19843;BME280;10082;51.038;6.992;2023-03-22T06:37:00;67515.13;;;-144.33;100.00
19843;BME280;10082;51.038;6.992;2023-03-22T06:39:34;66380.53;;;-144.33;100.00
19843;BME280;10082;51.038;6.992;2023-03-22T06:42:02;65759.63;;;-144.33;100.00
19843;BME280;10082;51.038;6.992;2023-03-22T06:44:29;65323.84;;;-144.33;100.00
19843;BME280;10082;51.038;6.992;2023-03-22T06:47:06;64723.00;;;-144.33;100.00
19843;BME280;10082;51.038;6.992;2023-03-22T06:49:49;64255.50;;;-144.33;100.00
19843;BME280;10082;51.038;6.992;2023-03-22T06:52:22;63181.50;;;-144.33;100.00
19843;BME280;10082;51.038;6.992;2023-03-22T06:54:51;62930.94;;;-144.33;100.00
19843;BME280;10082;51.038;6.992;2023-03-22T06:57:18;63306.78;;;-144.33;100.00
19843;BME280;10082;51.038;6.992;2023-03-22T06:59:45;63380.38;;;-144.33;100.00
19843;BME280;10082;51.038;6.992;2023-03-22T07:02:12;63261.03;;;-144.33;100.00
19843;BME280;10082;51.038;6.992;2023-03-22T07:04:51;62942.88;;;-144.33;100.00
19843;BME280;10082;51.038;6.992;2023-03-22T07:07:18;62513.34;;;-144.33;100.00
19843;BME280;10082;51.038;6.992;2023-03-22T07:09:45;62573.00;;;-144.33;100.00
19843;BME280;10082;51.038;6.992;2023-03-22T07:12:14;62748.00;;;-144.33;100.00
19843;BME280;10082;51.038;6.992;2023-03-22T07:14:43;63340.59;;;-144.33;100.00
19843;BME280;10082;51.038;6.992;2023-03-22T07:17:23;64169.97;;;-144.33;100.00
19843;BME280;10082;51.038;6.992;2023-03-22T07:19:50;65103.00;;;-144.33;100.00
19843;BME280;10082;51.038;6.992;2023-03-22T07:22:17;65662.13;;;-144.33;100.00
19843;BME280;10082;51.038;6.992;2023-03-22T07:24:47;67009.50;;;-144.33;100.00
19843;BME280;10082;51.038;6.992;2023-03-22T07:27:16;67459.41;;;-144.33;100.00
19843;BME280;10082;51.038;6.992;2023-03-22T07:29:43;69490.50;;;-144.33;100.00
19843;BME280;10082;51.038;6.992;2023-03-22T07:32:11;71733.91;;;-144.33;100.00
19843;BME280;10082;51.038;6.992;2023-03-22T07:34:53;79192.41;;;-144.33;100.00
19843;BME280;10082;51.038;6.992;2023-03-22T07:37:22;85112.78;;;-144.33;100.00
19843;BME280;10082;51.038;6.992;2023-03-22T07:39:49;87346.94;;;-144.33;100.00
19843;BME280;10082;51.038;6.992;2023-03-22T07:42:18;90247.00;;;-144.33;100.00
19843;BME280;10082;51.038;6.992;2023-03-22T07:44:45;94129.00;;;-144.33;100.00
19843;BME280;10082;51.038;6.992;2023-03-22T07:47:17;96839.38;;;-144.33;100.00
19843;BME280;10082;51.038;6.992;2023-03-22T07:50:03;100759.84;;;-144.33;100.00
19843;BME280;10082;51.038;6.992;2023-03-22T07:52:31;104866.94;;;-144.33;100.00
19843;BME280;10082;51.038;6.992;2023-03-22T07:54:59;106647.63;;;-144.33;100.00
19843;BME280;10082;51.038;6.992;2023-03-22T07:57:28;110478.97;;;-144.33;100.00
19843;BME280;10082;51.038;6.992;2023-03-22T07:59:58;111078.63;;;-144.33;100.00
19843;BME280;10082;51.038;6.992;2023-03-22T08:02:41;111575.75;;;-144.33;100.00
19843;BME280;10082;51.038;6.992;2023-03-22T08:05:14;111191.34;;;-144.33;100.00
19843;BME280;10082;51.038;6.992;2023-03-22T08:07:43;112085.00;;;-144.33;100.00
19843;BME280;10082;51.038;6.992;2023-03-22T08:10:12;112171.53;;;-144.33;100.00
19843;BME280;10082;51.038;6.992;2023-03-22T08:12:41;112171.53;;;-144.33;100.00
19843;BME280;10082;51.038;6.992;2023-03-22T08:15:15;112171.53;;;-144.33;100.00
19843;BME280;10082;51.038;6.992;2023-03-22T08:17:43;112171.53;;;-144.33;100.00
19843;BME280;10082;51.038;6.992;2023-03-22T08:20:16;112171.53;;;-144.33;100.00
19843;BME280;10082;51.038;6.992;2023-03-22T08:22:49;112171.53;;;-144.33;100.00
19843;BME280;10082;51.038;6.992;2023-03-22T08:25:20;112171.53;;;-144.33;100.00
19843;BME280;10082;51.038;6.992;2023-03-22T08:27:51;112171.53;;;-144.33;100.00
19843;BME280;10082;51.038;6.992;2023-03-22T08:30:18;112171.53;;;-144.33;100.00
19843;BME280;10082;51.038;6.992;2023-03-22T08:32:46;112171.53;;;-144.33;100.00
19843;BME280;10082;51.038;6.992;2023-03-22T08:35:13;112171.53;;;-144.33;95.12
19843;BME280;10082;51.038;6.992;2023-03-22T08:37:40;112171.53;;;-144.33;89.59
19843;BME280;10082;51.038;6.992;2023-03-22T08:40:09;112171.53;;;-144.33;85.33
19843;BME280;10082;51.038;6.992;2023-03-22T08:42:44;112171.53;;;-144.33;86.14
19843;BME280;10082;51.038;6.992;2023-03-22T08:45:13;112171.53;;;-144.33;85.70
19843;BME280;10082;51.038;6.992;2023-03-22T08:47:46;112171.53;;;-144.33;85.32
19843;BME280;10082;51.038;6.992;2023-03-22T08:50:14;112171.53;;;-144.33;82.72
19843;BME280;10082;51.038;6.992;2023-03-22T08:52:50;112171.53;;;-144.33;81.95
19843;BME280;10082;51.038;6.992;2023-03-22T08:55:29;112171.53;;;-144.33;78.67
19843;BME280;10082;51.038;6.992;2023-03-22T08:58:12;112171.53;;;-144.33;75.09
19843;BME280;10082;51.038;6.992;2023-03-22T09:01:16;112171.53;;;-144.33;79.76
19843;BME280;10082;51.038;6.992;2023-03-22T09:03:55;112171.53;;;-144.33;78.10
19843;BME280;10082;51.038;6.992;2023-03-22T09:06:23;112171.53;;;-144.33;80.54
19843;BME280;10082;51.038;6.992;2023-03-22T09:08:50;112171.53;;;-144.33;79.06
19843;BME280;10082;51.038;6.992;2023-03-22T09:11:20;112171.53;;;-144.33;81.39
19843;BME280;10082;51.038;6.992;2023-03-22T09:13:48;112171.53;;;-144.33;80.98
19843;BME280;10082;51.038;6.992;2023-03-22T09:16:17;112171.53;;;-144.33;81.67
19843;BME280;10082;51.038;6.992;2023-03-22T09:18:46;112171.53;;;-144.33;79.60
19843;BME280;10082;51.038;6.992;2023-03-22T09:21:16;112171.53;;;-144.33;76.44
19843;BME280;10082;51.038;6.992;2023-03-22T09:23:49;112171.53;;;-144.33;73.38
19843;BME280;10082;51.038;6.992;2023-03-22T09:26:19;112171.53;;;-144.33;70.37
19843;BME280;10082;51.038;6.992;2023-03-22T09:28:49;112171.53;;;-144.33;69.83
19843;BME280;10082;51.038;6.992;2023-03-22T09:31:18;112171.53;;;-144.33;68.73
19843;BME280;10082;51.038;6.992;2023-03-22T09:33:46;112171.53;;;-144.33;69.94
19843;BME280;10082;51.038;6.992;2023-03-22T09:36:14;112171.53;;;-144.33;69.23
19843;BME280;10082;51.038;6.992;2023-03-22T09:38:41;112171.53;;;-144.33;69.23
19843;BME280;10082;51.038;6.992;2023-03-22T09:41:13;112171.53;;;-144.33;69.52
19843;BME280;10082;51.038;6.992;2023-03-22T09:43:44;112171.53;;;-144.33;68.69
19843;BME280;10082;51.038;6.992;2023-03-22T09:46:18;112171.53;;;-144.33;67.77
19843;BME280;10082;51.038;6.992;2023-03-22T09:48:50;112171.53;;;-144.33;66.72
19843;BME280;10082;51.038;6.992;2023-03-22T09:51:28;112171.53;;;-144.33;64.88
19843;BME280;10082;51.038;6.992;2023-03-22T09:53:56;112171.53;;;-144.33;63.95
19843;BME280;10082;51.038;6.992;2023-03-22T09:56:25;112171.53;;;-144.33;63.92
19843;BME280;10082;51.038;6.992;2023-03-22T09:58:59;112171.53;;;-144.33;63.25
19843;BME280;10082;51.038;6.992;2023-03-22T10:01:37;112171.53;;;-144.33;63.92
19843;BME280;10082;51.038;6.992;2023-03-22T10:04:28;112171.53;;;-144.33;66.06
19843;BME280;10082;51.038;6.992;2023-03-22T10:07:05;112171.53;;;-144.33;66.02
19843;BME280;10082;51.038;6.992;2023-03-22T10:09:41;112171.53;;;-144.33;68.93
19843;BME280;10082;51.038;6.992;2023-03-22T10:12:16;112171.53;;;-144.33;69.87
19843;BME280;10082;51.038;6.992;2023-03-22T10:14:49;112171.53;;;-144.33;69.89
19843;BME280;10082;51.038;6.992;2023-03-22T10:17:22;112171.53;;;-144.33;70.01
19843;BME280;10082;51.038;6.992;2023-03-22T10:19:53;112171.53;;;-144.33;70.61
19843;BME280;10082;51.038;6.992;2023-03-22T10:22:24;112171.53;;;-144.33;67.33
19843;BME280;10082;51.038;6.992;2023-03-22T10:24:56;112171.53;;;-144.33;66.11
19843;BME280;10082;51.038;6.992;2023-03-22T10:27:25;112171.53;;;-144.33;63.01
19843;BME280;10082;51.038;6.992;2023-03-22T10:29:54;112171.53;;;-144.33;64.55
19843;BME280;10082;51.038;6.992;2023-03-22T10:32:29;112171.53;;;-144.33;64.78
19843;BME280;10082;51.038;6.992;2023-03-22T10:34:57;112171.53;;;-144.33;64.70
19843;BME280;10082;51.038;6.992;2023-03-22T10:37:30;112171.53;;;-144.33;64.30
19843;BME280;10082;51.038;6.992;2023-03-22T10:40:01;112171.53;;;-144.33;62.69
19843;BME280;10082;51.038;6.992;2023-03-22T10:42:36;112171.53;;;-144.33;62.72
19843;BME280;10082;51.038;6.992;2023-03-22T10:45:08;112171.53;;;-144.33;63.13
19843;BME280;10082;51.038;6.992;2023-03-22T10:47:43;112171.53;;;-144.33;62.78
19843;BME280;10082;51.038;6.992;2023-03-22T10:50:14;112171.53;;;-144.33;64.21
19843;BME280;10082;51.038;6.992;2023-03-22T10:52:48;112171.53;;;-144.33;64.96
19843;BME280;10082;51.038;6.992;2023-03-22T10:55:17;112171.53;;;-144.33;64.73
19843;BME280;10082;51.038;6.992;2023-03-22T10:57:50;112171.53;;;-144.33;65.61
19843;BME280;10082;51.038;6.992;2023-03-22T11:00:20;112171.53;;;-144.33;65.58
19843;BME280;10082;51.038;6.992;2023-03-22T11:02:53;112171.53;;;-144.33;65.62
19843;BME280;10082;51.038;6.992;2023-03-22T11:05:25;112171.53;;;-144.33;65.21
19843;BME280;10082;51.038;6.992;2023-03-22T11:07:53;112171.53;;;-144.33;65.71
19843;BME280;10082;51.038;6.992;2023-03-22T11:10:25;112171.53;;;-144.33;66.35
19843;BME280;10082;51.038;6.992;2023-03-22T11:13:15;112171.53;;;-144.33;66.33
19843;BME280;10082;51.038;6.992;2023-03-22T11:18:48;112171.53;;;-144.33;68.42
19843;BME280;10082;51.038;6.992;2023-03-22T11:21:16;112171.53;;;-144.33;67.38
19843;BME280;10082;51.038;6.992;2023-03-22T11:23:50;112171.53;;;-144.33;66.90
19843;BME280;10082;51.038;6.992;2023-03-22T11:26:27;112171.53;;;-144.33;68.45
19843;BME280;10082;51.038;6.992;2023-03-22T11:29:02;112171.53;;;-144.33;67.91
19843;BME280;10082;51.038;6.992;2023-03-22T11:31:48;112171.53;;;-144.33;67.05
19843;BME280;10082;51.038;6.992;2023-03-22T11:34:19;112171.53;;;-144.33;66.54
19843;BME280;10082;51.038;6.992;2023-03-22T11:36:58;112171.53;;;-144.33;67.94
19843;BME280;10082;51.038;6.992;2023-03-22T11:39:27;112171.53;;;-144.33;66.48
19843;BME280;10082;51.038;6.992;2023-03-22T11:41:56;112171.53;;;-144.33;66.43
19843;BME280;10082;51.038;6.992;2023-03-22T11:44:27;112171.53;;;-144.33;66.12
19843;BME280;10082;51.038;6.992;2023-03-22T11:47:00;112171.53;;;-144.33;66.42
19843;BME280;10082;51.038;6.992;2023-03-22T11:49:37;112171.53;;;-144.33;66.61
19843;BME280;10082;51.038;6.992;2023-03-22T11:52:10;112171.53;;;-144.33;65.79
19843;BME280;10082;51.038;6.992;2023-03-22T11:54:41;112171.53;;;-144.33;67.68
19843;BME280;10082;51.038;6.992;2023-03-22T11:57:12;112171.53;;;-144.33;68.15
19843;BME280;10082;51.038;6.992;2023-03-22T11:59:46;112171.53;;;-144.33;68.50
19843;BME280;10082;51.038;6.992;2023-03-22T12:02:19;112171.53;;;-144.33;68.48
19843;BME280;10082;51.038;6.992;2023-03-22T12:04:53;112171.53;;;-144.33;67.47
19843;BME280;10082;51.038;6.992;2023-03-22T12:07:27;112171.53;;;-144.33;68.73
19843;BME280;10082;51.038;6.992;2023-03-22T12:09:58;112171.53;;;-144.33;69.26
19843;BME280;10082;51.038;6.992;2023-03-22T12:12:30;112171.53;;;-144.33;70.14
19843;BME280;10082;51.038;6.992;2023-03-22T12:15:01;112171.53;;;-144.33;70.36
19843;BME280;10082;51.038;6.992;2023-03-22T12:17:35;112171.53;;;-144.33;69.91
19843;BME280;10082;51.038;6.992;2023-03-22T12:20:15;112171.53;;;-144.33;70.14
19843;BME280;10082;51.038;6.992;2023-03-22T12:22:48;112171.53;;;-144.33;70.56
19843;BME280;10082;51.038;6.992;2023-03-22T12:25:20;112171.53;;;-144.33;70.24
19843;BME280;10082;51.038;6.992;2023-03-22T12:27:50;112171.53;;;-144.33;70.15
19843;BME280;10082;51.038;6.992;2023-03-22T12:30:20;112171.53;;;-144.33;71.32
19843;BME280;10082;51.038;6.992;2023-03-22T12:32:52;112171.53;;;-144.33;72.57
19843;BME280;10082;51.038;6.992;2023-03-22T12:35:27;112171.53;;;-144.33;73.13
19843;BME280;10082;51.038;6.992;2023-03-22T12:37:57;112171.53;;;-144.33;72.72
19843;BME280;10082;51.038;6.992;2023-03-22T12:40:27;112171.53;;;-144.33;73.39
19843;BME280;10082;51.038;6.992;2023-03-22T12:43:01;112171.53;;;-144.33;72.79
19843;BME280;10082;51.038;6.992;2023-03-22T12:45:37;112171.53;;;-144.33;73.26
19843;BME280;10082;51.038;6.992;2023-03-22T12:48:10;112171.53;;;-144.33;72.83
19843;BME280;10082;51.038;6.992;2023-03-22T12:50:46;112171.53;;;-144.33;72.67
19843;BME280;10082;51.038;6.992;2023-03-22T12:53:16;112171.53;;;-144.33;72.83
19843;BME280;10082;51.038;6.992;2023-03-22T12:55:46;112171.53;;;-144.33;73.44
19843;BME280;10082;51.038;6.992;2023-03-22T12:58:18;112171.53;;;-144.33;73.57
19843;BME280;10082;51.038;6.992;2023-03-22T13:00:49;112171.53;;;-144.33;73.44
19843;BME280;10082;51.038;6.992;2023-03-22T13:03:22;112171.53;;;-144.33;73.38
19843;BME280;10082;51.038;6.992;2023-03-22T13:06:02;112171.53;;;-144.33;74.59
19843;BME280;10082;51.038;6.992;2023-03-22T13:09:10;112171.53;;;-144.33;77.37